sensor_id;sensor_type;location;lat;lon;timestamp;P1;durP1;ratioP1;P2;durP2;ratioP2
53775;SDS011;44276;49.534;6.378;2023-12-20T00:00:04;14.80;;;7.63;;
53775;SDS011;44276;49.534;6.378;2023-12-20T00:02:34;17.98;;;8.75;;
53775;SDS011;44276;49.534;6.378;2023-12-20T00:05:02;18.17;;;9.05;;
53775;SDS011;44276;49.534;6.378;2023-12-20T00:07:32;14.52;;;7.05;;
53775;SDS011;44276;49.534;6.378;2023-12-20T00:10:01;15.05;;;7.45;;
53775;SDS011;44276;49.534;6.378;2023-12-20T00:12:29;17.98;;;7.85;;
53775;SDS011;44276;49.534;6.378;2023-12-20T00:14:57;17.25;;;8.10;;
53775;SDS011;44276;49.534;6.378;2023-12-20T00:17:25;12.93;;;7.20;;
53775;SDS011;44276;49.534;6.378;2023-12-20T00:19:53;17.30;;;7.75;;
53775;SDS011;44276;49.534;6.378;2023-12-20T00:22:22;14.98;;;7.32;;
53775;SDS011;44276;49.534;6.378;2023-12-20T00:24:51;11.85;;;6.82;;
53775;SDS011;44276;49.534;6.378;2023-12-20T00:27:19;18.65;;;7.28;;
53775;SDS011;44276;49.534;6.378;2023-12-20T00:29:47;15.43;;;8.30;;
53775;SDS011;44276;49.534;6.378;2023-12-20T00:32:16;18.85;;;7.88;;
53775;SDS011;44276;49.534;6.378;2023-12-20T00:34:44;16.63;;;8.80;;
53775;SDS011;44276;49.534;6.378;2023-12-20T00:37:13;15.13;;;8.43;;
53775;SDS011;44276;49.534;6.378;2023-12-20T00:39:41;16.50;;;7.88;;
53775;SDS011;44276;49.534;6.378;2023-12-20T00:42:11;16.67;;;9.65;;
53775;SDS011;44276;49.534;6.378;2023-12-20T00:44:39;19.48;;;9.45;;
53775;SDS011;44276;49.534;6.378;2023-12-20T00:47:07;17.02;;;9.05;;
53775;SDS011;44276;49.534;6.378;2023-12-20T00:49:36;16.25;;;8.15;;
53775;SDS011;44276;49.534;6.378;2023-12-20T00:52:04;18.83;;;8.82;;
53775;SDS011;44276;49.534;6.378;2023-12-20T00:54:33;24.65;;;10.75;;
53775;SDS011;44276;49.534;6.378;2023-12-20T00:57:01;19.75;;;9.77;;
53775;SDS011;44276;49.534;6.378;2023-12-20T00:59:31;17.90;;;9.68;;
53775;SDS011;44276;49.534;6.378;2023-12-20T01:01:59;24.13;;;9.63;;
53775;SDS011;44276;49.534;6.378;2023-12-20T01:04:28;21.17;;;9.75;;
53775;SDS011;44276;49.534;6.378;2023-12-20T01:06:56;19.38;;;8.80;;
53775;SDS011;44276;49.534;6.378;2023-12-20T01:09:24;20.73;;;8.60;;
53775;SDS011;44276;49.534;6.378;2023-12-20T01:11:53;20.67;;;9.32;;
53775;SDS011;44276;49.534;6.378;2023-12-20T01:14:22;20.58;;;9.30;;
53775;SDS011;44276;49.534;6.378;2023-12-20T01:16:51;22.80;;;8.57;;
53775;SDS011;44276;49.534;6.378;2023-12-20T01:19:19;17.75;;;8.82;;
53775;SDS011;44276;49.534;6.378;2023-12-20T01:21:48;20.08;;;8.68;;
53775;SDS011;44276;49.534;6.378;2023-12-20T01:24:16;17.23;;;7.97;;
53775;SDS011;44276;49.534;6.378;2023-12-20T01:26:44;20.67;;;9.45;;
53775;SDS011;44276;49.534;6.378;2023-12-20T01:29:12;24.08;;;10.07;;
53775;SDS011;44276;49.534;6.378;2023-12-20T01:31:42;22.70;;;6.97;;
53775;SDS011;44276;49.534;6.378;2023-12-20T01:34:11;18.10;;;7.90;;
53775;SDS011;44276;49.534;6.378;2023-12-20T01:36:40;21.33;;;8.30;;
53775;SDS011;44276;49.534;6.378;2023-12-20T01:39:08;18.48;;;7.75;;
53775;SDS011;44276;49.534;6.378;2023-12-20T01:41:50;17.25;;;7.45;;
53775;SDS011;44276;49.534;6.378;2023-12-20T01:44:18;13.98;;;7.45;;
53775;SDS011;44276;49.534;6.378;2023-12-20T01:46:47;17.38;;;7.65;;
53775;SDS011;44276;49.534;6.378;2023-12-20T01:49:17;18.83;;;7.45;;
53775;SDS011;44276;49.534;6.378;2023-12-20T01:51:45;18.20;;;7.75;;
53775;SDS011;44276;49.534;6.378;2023-12-20T01:54:14;17.98;;;9.18;;
53775;SDS011;44276;49.534;6.378;2023-12-20T01:56:42;15.02;;;7.57;;
53775;SDS011;44276;49.534;6.378;2023-12-20T01:59:10;16.95;;;7.18;;
53775;SDS011;44276;49.534;6.378;2023-12-20T02:01:40;20.00;;;8.18;;
53775;SDS011;44276;49.534;6.378;2023-12-20T02:04:08;15.70;;;8.38;;
53775;SDS011;44276;49.534;6.378;2023-12-20T02:06:38;13.88;;;6.50;;
53775;SDS011;44276;49.534;6.378;2023-12-20T02:09:07;18.33;;;7.72;;
53775;SDS011;44276;49.534;6.378;2023-12-20T02:11:36;16.70;;;7.47;;
53775;SDS011;44276;49.534;6.378;2023-12-20T02:14:05;17.65;;;6.75;;
53775;SDS011;44276;49.534;6.378;2023-12-20T02:16:33;18.45;;;6.85;;
53775;SDS011;44276;49.534;6.378;2023-12-20T02:19:02;15.18;;;6.43;;
53775;SDS011;44276;49.534;6.378;2023-12-20T02:21:39;14.32;;;7.22;;
53775;SDS011;44276;49.534;6.378;2023-12-20T02:24:07;11.88;;;5.40;;
53775;SDS011;44276;49.534;6.378;2023-12-20T02:26:35;16.42;;;6.65;;
53775;SDS011;44276;49.534;6.378;2023-12-20T02:29:03;21.50;;;7.80;;
53775;SDS011;44276;49.534;6.378;2023-12-20T02:31:32;13.65;;;6.68;;
53775;SDS011;44276;49.534;6.378;2023-12-20T02:34:00;15.00;;;8.13;;
53775;SDS011;44276;49.534;6.378;2023-12-20T02:36:28;16.13;;;7.72;;
53775;SDS011;44276;49.534;6.378;2023-12-20T02:38:58;12.98;;;6.25;;
53775;SDS011;44276;49.534;6.378;2023-12-20T02:41:26;13.00;;;6.60;;
53775;SDS011;44276;49.534;6.378;2023-12-20T02:43:54;12.40;;;6.10;;
53775;SDS011;44276;49.534;6.378;2023-12-20T02:46:22;14.57;;;7.40;;
53775;SDS011;44276;49.534;6.378;2023-12-20T02:48:51;15.38;;;7.07;;
53775;SDS011;44276;49.534;6.378;2023-12-20T02:51:19;10.00;;;5.30;;
53775;SDS011;44276;49.534;6.378;2023-12-20T02:53:47;10.63;;;5.10;;
53775;SDS011;44276;49.534;6.378;2023-12-20T02:56:16;10.23;;;5.45;;
53775;SDS011;44276;49.534;6.378;2023-12-20T02:58:45;12.57;;;5.25;;
53775;SDS011;44276;49.534;6.378;2023-12-20T03:01:13;12.52;;;5.68;;
53775;SDS011;44276;49.534;6.378;2023-12-20T03:03:41;13.38;;;4.97;;
53775;SDS011;44276;49.534;6.378;2023-12-20T03:06:09;10.82;;;5.63;;
53775;SDS011;44276;49.534;6.378;2023-12-20T03:08:37;11.55;;;5.10;;
53775;SDS011;44276;49.534;6.378;2023-12-20T03:11:07;13.75;;;6.15;;
53775;SDS011;44276;49.534;6.378;2023-12-20T03:13:36;9.38;;;4.07;;
53775;SDS011;44276;49.534;6.378;2023-12-20T03:16:07;10.02;;;4.43;;
53775;SDS011;44276;49.534;6.378;2023-12-20T03:18:36;11.70;;;5.22;;
53775;SDS011;44276;49.534;6.378;2023-12-20T03:21:05;9.73;;;4.60;;
53775;SDS011;44276;49.534;6.378;2023-12-20T03:23:33;10.10;;;4.43;;
53775;SDS011;44276;49.534;6.378;2023-12-20T03:26:01;9.10;;;4.43;;
53775;SDS011;44276;49.534;6.378;2023-12-20T03:28:30;7.82;;;3.88;;
53775;SDS011;44276;49.534;6.378;2023-12-20T03:31:00;10.38;;;4.57;;
53775;SDS011;44276;49.534;6.378;2023-12-20T03:33:29;7.70;;;4.15;;
53775;SDS011;44276;49.534;6.378;2023-12-20T03:35:57;15.85;;;4.57;;
53775;SDS011;44276;49.534;6.378;2023-12-20T03:38:25;11.55;;;4.60;;
53775;SDS011;44276;49.534;6.378;2023-12-20T03:40:53;9.18;;;4.25;;
53775;SDS011;44276;49.534;6.378;2023-12-20T03:43:21;9.57;;;4.32;;
53775;SDS011;44276;49.534;6.378;2023-12-20T03:45:50;9.35;;;3.97;;
53775;SDS011;44276;49.534;6.378;2023-12-20T03:48:19;11.73;;;3.92;;
53775;SDS011;44276;49.534;6.378;2023-12-20T03:50:48;19.45;;;5.32;;
53775;SDS011;44276;49.534;6.378;2023-12-20T03:53:16;18.77;;;4.65;;
53775;SDS011;44276;49.534;6.378;2023-12-20T03:55:44;12.65;;;3.38;;
53775;SDS011;44276;49.534;6.378;2023-12-20T03:58:12;11.27;;;4.05;;
53775;SDS011;44276;49.534;6.378;2023-12-20T04:00:40;10.07;;;3.42;;
53775;SDS011;44276;49.534;6.378;2023-12-20T04:03:09;8.63;;;2.70;;
53775;SDS011;44276;49.534;6.378;2023-12-20T04:05:40;12.15;;;3.95;;
53775;SDS011;44276;49.534;6.378;2023-12-20T04:08:09;10.77;;;3.60;;
53775;SDS011;44276;49.534;6.378;2023-12-20T04:10:37;14.75;;;3.72;;
53775;SDS011;44276;49.534;6.378;2023-12-20T04:13:05;9.57;;;3.58;;
53775;SDS011;44276;49.534;6.378;2023-12-20T04:15:33;9.70;;;2.58;;
53775;SDS011;44276;49.534;6.378;2023-12-20T04:18:02;10.95;;;3.20;;
53775;SDS011;44276;49.534;6.378;2023-12-20T04:20:30;8.93;;;2.53;;
53775;SDS011;44276;49.534;6.378;2023-12-20T04:23:00;7.60;;;3.55;;
53775;SDS011;44276;49.534;6.378;2023-12-20T04:25:28;8.13;;;3.38;;
53775;SDS011;44276;49.534;6.378;2023-12-20T04:27:57;19.70;;;3.30;;
53775;SDS011;44276;49.534;6.378;2023-12-20T04:30:25;7.07;;;2.88;;
53775;SDS011;44276;49.534;6.378;2023-12-20T04:32:53;12.13;;;3.88;;
53775;SDS011;44276;49.534;6.378;2023-12-20T04:35:21;10.18;;;3.60;;
53775;SDS011;44276;49.534;6.378;2023-12-20T04:37:49;8.80;;;3.75;;
53775;SDS011;44276;49.534;6.378;2023-12-20T04:40:18;9.05;;;4.53;;
53775;SDS011;44276;49.534;6.378;2023-12-20T04:42:46;8.85;;;3.55;;
53775;SDS011;44276;49.534;6.378;2023-12-20T04:45:14;11.45;;;4.10;;
53775;SDS011;44276;49.534;6.378;2023-12-20T04:47:43;8.25;;;3.42;;
53775;SDS011;44276;49.534;6.378;2023-12-20T04:50:13;8.25;;;3.22;;
53775;SDS011;44276;49.534;6.378;2023-12-20T04:52:42;12.18;;;4.55;;
53775;SDS011;44276;49.534;6.378;2023-12-20T04:55:10;12.45;;;5.50;;
53775;SDS011;44276;49.534;6.378;2023-12-20T04:57:40;11.70;;;3.65;;
53775;SDS011;44276;49.534;6.378;2023-12-20T05:00:09;16.33;;;4.43;;
53775;SDS011;44276;49.534;6.378;2023-12-20T05:02:41;16.08;;;3.92;;
53775;SDS011;44276;49.534;6.378;2023-12-20T05:05:09;8.68;;;3.67;;
53775;SDS011;44276;49.534;6.378;2023-12-20T05:07:38;7.50;;;4.45;;
53775;SDS011;44276;49.534;6.378;2023-12-20T05:10:06;8.35;;;3.25;;
53775;SDS011;44276;49.534;6.378;2023-12-20T05:12:36;7.80;;;3.20;;
53775;SDS011;44276;49.534;6.378;2023-12-20T05:15:06;7.30;;;4.05;;
53775;SDS011;44276;49.534;6.378;2023-12-20T05:17:35;8.60;;;3.60;;
53775;SDS011;44276;49.534;6.378;2023-12-20T05:20:03;41.40;;;4.90;;
53775;SDS011;44276;49.534;6.378;2023-12-20T05:22:34;7.07;;;2.95;;
53775;SDS011;44276;49.534;6.378;2023-12-20T05:25:02;17.60;;;4.15;;
53775;SDS011;44276;49.534;6.378;2023-12-20T05:27:31;18.17;;;4.90;;
53775;SDS011;44276;49.534;6.378;2023-12-20T05:29:59;13.10;;;4.05;;
53775;SDS011;44276;49.534;6.378;2023-12-20T05:32:29;10.00;;;3.42;;
53775;SDS011;44276;49.534;6.378;2023-12-20T05:34:57;7.43;;;3.70;;
53775;SDS011;44276;49.534;6.378;2023-12-20T05:37:26;16.85;;;4.30;;
53775;SDS011;44276;49.534;6.378;2023-12-20T05:39:54;15.20;;;4.18;;
53775;SDS011;44276;49.534;6.378;2023-12-20T05:42:22;7.18;;;2.60;;
53775;SDS011;44276;49.534;6.378;2023-12-20T05:44:50;18.13;;;5.60;;
53775;SDS011;44276;49.534;6.378;2023-12-20T05:47:21;10.77;;;5.93;;
53775;SDS011;44276;49.534;6.378;2023-12-20T05:49:50;16.58;;;4.88;;
53775;SDS011;44276;49.534;6.378;2023-12-20T05:52:19;19.15;;;4.97;;
53775;SDS011;44276;49.534;6.378;2023-12-20T05:54:47;10.77;;;3.55;;
53775;SDS011;44276;49.534;6.378;2023-12-20T05:57:15;15.60;;;4.40;;
53775;SDS011;44276;49.534;6.378;2023-12-20T05:59:43;18.48;;;5.20;;
53775;SDS011;44276;49.534;6.378;2023-12-20T06:02:11;8.48;;;3.97;;
53775;SDS011;44276;49.534;6.378;2023-12-20T06:04:41;13.40;;;3.45;;
53775;SDS011;44276;49.534;6.378;2023-12-20T06:07:12;10.80;;;3.33;;
53775;SDS011;44276;49.534;6.378;2023-12-20T06:09:41;7.55;;;3.25;;
53775;SDS011;44276;49.534;6.378;2023-12-20T06:12:09;9.25;;;3.45;;
53775;SDS011;44276;49.534;6.378;2023-12-20T06:14:37;14.73;;;3.67;;
53775;SDS011;44276;49.534;6.378;2023-12-20T06:17:06;9.73;;;3.28;;
53775;SDS011;44276;49.534;6.378;2023-12-20T06:19:34;6.00;;;3.05;;
53775;SDS011;44276;49.534;6.378;2023-12-20T06:22:02;17.00;;;4.68;;
53775;SDS011;44276;49.534;6.378;2023-12-20T06:24:32;10.20;;;5.10;;
53775;SDS011;44276;49.534;6.378;2023-12-20T06:27:01;8.10;;;3.90;;
53775;SDS011;44276;49.534;6.378;2023-12-20T06:29:30;9.90;;;3.53;;
53775;SDS011;44276;49.534;6.378;2023-12-20T06:31:58;10.23;;;3.67;;
53775;SDS011;44276;49.534;6.378;2023-12-20T06:34:26;17.17;;;4.70;;
53775;SDS011;44276;49.534;6.378;2023-12-20T06:36:55;5.88;;;3.22;;
53775;SDS011;44276;49.534;6.378;2023-12-20T06:39:23;11.20;;;4.28;;
53775;SDS011;44276;49.534;6.378;2023-12-20T06:41:52;9.52;;;3.80;;
53775;SDS011;44276;49.534;6.378;2023-12-20T06:44:20;10.20;;;4.78;;
53775;SDS011;44276;49.534;6.378;2023-12-20T06:46:49;10.10;;;5.43;;
53775;SDS011;44276;49.534;6.378;2023-12-20T06:49:17;16.15;;;4.78;;
53775;SDS011;44276;49.534;6.378;2023-12-20T06:51:45;18.10;;;4.47;;
53775;SDS011;44276;49.534;6.378;2023-12-20T06:54:14;12.02;;;4.38;;
53775;SDS011;44276;49.534;6.378;2023-12-20T06:56:42;19.02;;;5.03;;
53775;SDS011;44276;49.534;6.378;2023-12-20T06:59:11;12.73;;;3.70;;
53775;SDS011;44276;49.534;6.378;2023-12-20T07:01:40;9.27;;;4.20;;
53775;SDS011;44276;49.534;6.378;2023-12-20T07:04:08;10.10;;;4.88;;
53775;SDS011;44276;49.534;6.378;2023-12-20T07:06:37;16.77;;;4.15;;
53775;SDS011;44276;49.534;6.378;2023-12-20T07:09:05;24.63;;;4.93;;
53775;SDS011;44276;49.534;6.378;2023-12-20T07:11:33;14.85;;;4.53;;
53775;SDS011;44276;49.534;6.378;2023-12-20T07:14:02;10.38;;;3.90;;
53775;SDS011;44276;49.534;6.378;2023-12-20T07:16:31;14.32;;;3.95;;
53775;SDS011;44276;49.534;6.378;2023-12-20T07:18:59;12.82;;;4.22;;
53775;SDS011;44276;49.534;6.378;2023-12-20T07:21:27;22.20;;;4.38;;
53775;SDS011;44276;49.534;6.378;2023-12-20T07:23:56;12.43;;;4.50;;
53775;SDS011;44276;49.534;6.378;2023-12-20T07:26:24;12.32;;;3.33;;
53775;SDS011;44276;49.534;6.378;2023-12-20T07:28:52;13.25;;;4.38;;
53775;SDS011;44276;49.534;6.378;2023-12-20T07:31:21;28.38;;;6.13;;
53775;SDS011;44276;49.534;6.378;2023-12-20T07:33:51;9.25;;;5.15;;
53775;SDS011;44276;49.534;6.378;2023-12-20T07:36:20;8.68;;;4.18;;
53775;SDS011;44276;49.534;6.378;2023-12-20T07:38:48;8.68;;;4.28;;
53775;SDS011;44276;49.534;6.378;2023-12-20T07:41:16;15.48;;;3.33;;
53775;SDS011;44276;49.534;6.378;2023-12-20T07:43:47;9.93;;;4.30;;
53775;SDS011;44276;49.534;6.378;2023-12-20T07:46:15;12.55;;;3.80;;
53775;SDS011;44276;49.534;6.378;2023-12-20T07:48:45;19.63;;;5.28;;
53775;SDS011;44276;49.534;6.378;2023-12-20T07:51:14;9.63;;;4.43;;
53775;SDS011;44276;49.534;6.378;2023-12-20T07:53:43;10.45;;;4.30;;
53775;SDS011;44276;49.534;6.378;2023-12-20T07:56:15;8.63;;;3.40;;
53775;SDS011;44276;49.534;6.378;2023-12-20T07:58:43;27.27;;;4.57;;
53775;SDS011;44276;49.534;6.378;2023-12-20T08:01:19;13.05;;;5.25;;
53775;SDS011;44276;49.534;6.378;2023-12-20T08:03:48;7.10;;;3.78;;
53775;SDS011;44276;49.534;6.378;2023-12-20T08:06:19;23.90;;;5.15;;
53775;SDS011;44276;49.534;6.378;2023-12-20T08:08:48;25.88;;;5.55;;
53775;SDS011;44276;49.534;6.378;2023-12-20T08:11:27;9.25;;;4.05;;
53775;SDS011;44276;49.534;6.378;2023-12-20T08:13:56;11.02;;;4.13;;
53775;SDS011;44276;49.534;6.378;2023-12-20T08:16:24;9.10;;;4.57;;
53775;SDS011;44276;49.534;6.378;2023-12-20T08:18:53;13.40;;;4.25;;
53775;SDS011;44276;49.534;6.378;2023-12-20T08:21:23;8.55;;;4.05;;
53775;SDS011;44276;49.534;6.378;2023-12-20T08:23:51;12.68;;;4.95;;
53775;SDS011;44276;49.534;6.378;2023-12-20T08:26:19;19.60;;;5.95;;
53775;SDS011;44276;49.534;6.378;2023-12-20T08:28:48;15.10;;;3.88;;
53775;SDS011;44276;49.534;6.378;2023-12-20T08:31:18;14.02;;;4.45;;
53775;SDS011;44276;49.534;6.378;2023-12-20T08:33:48;9.18;;;4.57;;
53775;SDS011;44276;49.534;6.378;2023-12-20T08:36:17;11.98;;;5.93;;
53775;SDS011;44276;49.534;6.378;2023-12-20T08:38:49;18.73;;;5.55;;
53775;SDS011;44276;49.534;6.378;2023-12-20T08:41:17;17.25;;;4.85;;
53775;SDS011;44276;49.534;6.378;2023-12-20T08:43:46;6.72;;;3.47;;
53775;SDS011;44276;49.534;6.378;2023-12-20T08:46:15;16.48;;;4.50;;
53775;SDS011;44276;49.534;6.378;2023-12-20T08:48:43;20.48;;;4.22;;
53775;SDS011;44276;49.534;6.378;2023-12-20T08:51:12;17.08;;;4.80;;
53775;SDS011;44276;49.534;6.378;2023-12-20T08:53:41;8.55;;;3.55;;
53775;SDS011;44276;49.534;6.378;2023-12-20T08:56:12;16.88;;;4.25;;
53775;SDS011;44276;49.534;6.378;2023-12-20T08:58:41;11.95;;;4.53;;
53775;SDS011;44276;49.534;6.378;2023-12-20T09:01:09;15.27;;;4.05;;
53775;SDS011;44276;49.534;6.378;2023-12-20T09:03:38;15.27;;;4.53;;
53775;SDS011;44276;49.534;6.378;2023-12-20T09:06:07;11.00;;;4.43;;
53775;SDS011;44276;49.534;6.378;2023-12-20T09:08:35;14.02;;;4.60;;
53775;SDS011;44276;49.534;6.378;2023-12-20T09:11:03;14.25;;;4.30;;
53775;SDS011;44276;49.534;6.378;2023-12-20T09:13:33;12.38;;;4.63;;
53775;SDS011;44276;49.534;6.378;2023-12-20T09:16:02;24.88;;;4.55;;
53775;SDS011;44276;49.534;6.378;2023-12-20T09:18:31;16.55;;;3.85;;
53775;SDS011;44276;49.534;6.378;2023-12-20T09:20:59;14.35;;;4.35;;
53775;SDS011;44276;49.534;6.378;2023-12-20T09:23:28;22.00;;;6.43;;
53775;SDS011;44276;49.534;6.378;2023-12-20T09:25:56;10.98;;;3.85;;
53775;SDS011;44276;49.534;6.378;2023-12-20T09:28:24;17.90;;;4.47;;
53775;SDS011;44276;49.534;6.378;2023-12-20T09:30:54;13.35;;;2.63;;
53775;SDS011;44276;49.534;6.378;2023-12-20T09:33:22;6.88;;;2.13;;
53775;SDS011;44276;49.534;6.378;2023-12-20T09:35:51;13.40;;;4.07;;
53775;SDS011;44276;49.534;6.378;2023-12-20T09:38:20;9.95;;;3.08;;
53775;SDS011;44276;49.534;6.378;2023-12-20T09:40:49;14.25;;;3.05;;
53775;SDS011;44276;49.534;6.378;2023-12-20T09:43:18;8.48;;;3.58;;
53775;SDS011;44276;49.534;6.378;2023-12-20T09:45:48;12.95;;;4.07;;
53775;SDS011;44276;49.534;6.378;2023-12-20T09:48:23;18.85;;;5.72;;
53775;SDS011;44276;49.534;6.378;2023-12-20T09:50:55;16.70;;;3.47;;
53775;SDS011;44276;49.534;6.378;2023-12-20T09:53:23;8.15;;;2.45;;
53775;SDS011;44276;49.534;6.378;2023-12-20T09:55:56;6.13;;;2.90;;
53775;SDS011;44276;49.534;6.378;2023-12-20T09:58:27;13.30;;;2.83;;
53775;SDS011;44276;49.534;6.378;2023-12-20T10:00:57;6.60;;;2.90;;
53775;SDS011;44276;49.534;6.378;2023-12-20T10:03:26;8.30;;;2.78;;
53775;SDS011;44276;49.534;6.378;2023-12-20T10:05:56;9.93;;;3.88;;
53775;SDS011;44276;49.534;6.378;2023-12-20T10:08:26;14.07;;;3.33;;
53775;SDS011;44276;49.534;6.378;2023-12-20T10:10:56;18.77;;;4.05;;
53775;SDS011;44276;49.534;6.378;2023-12-20T10:13:29;12.35;;;2.33;;
53775;SDS011;44276;49.534;6.378;2023-12-20T10:15:59;16.95;;;3.72;;
53775;SDS011;44276;49.534;6.378;2023-12-20T10:18:28;7.57;;;2.45;;
53775;SDS011;44276;49.534;6.378;2023-12-20T10:23:33;9.02;;;2.15;;
53775;SDS011;44276;49.534;6.378;2023-12-20T10:26:02;9.20;;;2.03;;
53775;SDS011;44276;49.534;6.378;2023-12-20T10:28:32;7.85;;;2.20;;
53775;SDS011;44276;49.534;6.378;2023-12-20T10:31:03;5.40;;;1.73;;
53775;SDS011;44276;49.534;6.378;2023-12-20T10:33:32;5.43;;;1.90;;
53775;SDS011;44276;49.534;6.378;2023-12-20T10:36:01;3.63;;;1.92;;
53775;SDS011;44276;49.534;6.378;2023-12-20T10:38:30;7.30;;;1.90;;
53775;SDS011;44276;49.534;6.378;2023-12-20T10:40:59;6.97;;;2.65;;
53775;SDS011;44276;49.534;6.378;2023-12-20T10:43:31;8.32;;;2.72;;
53775;SDS011;44276;49.534;6.378;2023-12-20T10:46:04;7.93;;;1.88;;
53775;SDS011;44276;49.534;6.378;2023-12-20T10:48:33;10.77;;;2.78;;
53775;SDS011;44276;49.534;6.378;2023-12-20T10:51:04;15.18;;;2.25;;
53775;SDS011;44276;49.534;6.378;2023-12-20T10:53:33;6.05;;;2.53;;
53775;SDS011;44276;49.534;6.378;2023-12-20T10:56:04;12.10;;;3.25;;
53775;SDS011;44276;49.534;6.378;2023-12-20T10:58:37;6.57;;;2.22;;
53775;SDS011;44276;49.534;6.378;2023-12-20T11:01:12;8.07;;;1.80;;
53775;SDS011;44276;49.534;6.378;2023-12-20T11:03:43;5.78;;;1.92;;
53775;SDS011;44276;49.534;6.378;2023-12-20T11:06:25;8.15;;;3.13;;
53775;SDS011;44276;49.534;6.378;2023-12-20T11:09:06;25.13;;;4.65;;
53775;SDS011;44276;49.534;6.378;2023-12-20T11:14:38;7.95;;;2.33;;
53775;SDS011;44276;49.534;6.378;2023-12-20T11:17:14;11.65;;;1.73;;
53775;SDS011;44276;49.534;6.378;2023-12-20T11:22:38;12.95;;;1.83;;
53775;SDS011;44276;49.534;6.378;2023-12-20T11:25:20;7.95;;;2.45;;
53775;SDS011;44276;49.534;6.378;2023-12-20T11:30:40;5.78;;;1.88;;
53775;SDS011;44276;49.534;6.378;2023-12-20T11:33:11;4.53;;;1.20;;
53775;SDS011;44276;49.534;6.378;2023-12-20T11:35:41;10.98;;;2.92;;
53775;SDS011;44276;49.534;6.378;2023-12-20T11:38:10;9.70;;;1.92;;
53775;SDS011;44276;49.534;6.378;2023-12-20T11:40:38;3.63;;;1.10;;
53775;SDS011;44276;49.534;6.378;2023-12-20T11:43:09;7.18;;;1.50;;
53775;SDS011;44276;49.534;6.378;2023-12-20T11:45:38;5.80;;;1.73;;
53775;SDS011;44276;49.534;6.378;2023-12-20T11:48:19;12.57;;;1.83;;
53775;SDS011;44276;49.534;6.378;2023-12-20T11:50:48;6.70;;;1.25;;
53775;SDS011;44276;49.534;6.378;2023-12-20T11:53:17;6.93;;;2.20;;
53775;SDS011;44276;49.534;6.378;2023-12-20T11:55:47;9.32;;;1.55;;
53775;SDS011;44276;49.534;6.378;2023-12-20T11:58:16;6.15;;;2.95;;
53775;SDS011;44276;49.534;6.378;2023-12-20T12:00:44;12.68;;;3.70;;
53775;SDS011;44276;49.534;6.378;2023-12-20T12:03:14;6.25;;;2.28;;
53775;SDS011;44276;49.534;6.378;2023-12-20T12:05:44;13.85;;;2.97;;
53775;SDS011;44276;49.534;6.378;2023-12-20T12:08:15;19.05;;;3.28;;
53775;SDS011;44276;49.534;6.378;2023-12-20T12:10:45;9.18;;;2.08;;
53775;SDS011;44276;49.534;6.378;2023-12-20T12:13:13;11.50;;;1.75;;
53775;SDS011;44276;49.534;6.378;2023-12-20T12:15:42;8.00;;;1.77;;
53775;SDS011;44276;49.534;6.378;2023-12-20T12:18:11;18.50;;;2.40;;
53775;SDS011;44276;49.534;6.378;2023-12-20T12:20:44;7.18;;;1.30;;
53775;SDS011;44276;49.534;6.378;2023-12-20T12:23:13;3.92;;;1.77;;
53775;SDS011;44276;49.534;6.378;2023-12-20T12:25:41;8.10;;;2.08;;
53775;SDS011;44276;49.534;6.378;2023-12-20T12:28:13;4.72;;;1.67;;
53775;SDS011;44276;49.534;6.378;2023-12-20T12:30:41;6.38;;;2.22;;
53775;SDS011;44276;49.534;6.378;2023-12-20T12:33:19;4.07;;;0.93;;
53775;SDS011;44276;49.534;6.378;2023-12-20T12:35:49;14.70;;;2.78;;
53775;SDS011;44276;49.534;6.378;2023-12-20T12:38:19;7.53;;;1.65;;
53775;SDS011;44276;49.534;6.378;2023-12-20T12:40:48;4.15;;;1.77;;
53775;SDS011;44276;49.534;6.378;2023-12-20T12:43:17;7.07;;;1.63;;
53775;SDS011;44276;49.534;6.378;2023-12-20T12:45:45;12.18;;;2.17;;
53775;SDS011;44276;49.534;6.378;2023-12-20T12:48:13;15.85;;;2.70;;
53775;SDS011;44276;49.534;6.378;2023-12-20T12:50:42;8.02;;;2.13;;
53775;SDS011;44276;49.534;6.378;2023-12-20T12:53:11;13.65;;;2.90;;
53775;SDS011;44276;49.534;6.378;2023-12-20T12:55:39;7.72;;;1.25;;
53775;SDS011;44276;49.534;6.378;2023-12-20T12:58:07;9.70;;;2.55;;
53775;SDS011;44276;49.534;6.378;2023-12-20T13:00:36;10.48;;;2.78;;
53775;SDS011;44276;49.534;6.378;2023-12-20T13:03:04;11.05;;;2.88;;
53775;SDS011;44276;49.534;6.378;2023-12-20T13:05:35;13.18;;;2.28;;
53775;SDS011;44276;49.534;6.378;2023-12-20T13:08:07;17.83;;;2.78;;
53775;SDS011;44276;49.534;6.378;2023-12-20T13:10:39;13.20;;;3.22;;
53775;SDS011;44276;49.534;6.378;2023-12-20T13:13:08;12.02;;;2.83;;
53775;SDS011;44276;49.534;6.378;2023-12-20T13:15:38;8.13;;;3.90;;
53775;SDS011;44276;49.534;6.378;2023-12-20T13:18:06;8.98;;;2.60;;
53775;SDS011;44276;49.534;6.378;2023-12-20T13:20:35;9.63;;;2.28;;
53775;SDS011;44276;49.534;6.378;2023-12-20T13:23:06;8.23;;;1.73;;
53775;SDS011;44276;49.534;6.378;2023-12-20T13:25:34;11.73;;;3.13;;
53775;SDS011;44276;49.534;6.378;2023-12-20T13:28:04;7.25;;;2.20;;
53775;SDS011;44276;49.534;6.378;2023-12-20T13:30:34;19.15;;;3.47;;
53775;SDS011;44276;49.534;6.378;2023-12-20T13:33:02;10.02;;;2.63;;
53775;SDS011;44276;49.534;6.378;2023-12-20T13:35:31;14.45;;;3.33;;
53775;SDS011;44276;49.534;6.378;2023-12-20T13:38:00;13.65;;;3.20;;
53775;SDS011;44276;49.534;6.378;2023-12-20T13:40:28;15.40;;;2.03;;
53775;SDS011;44276;49.534;6.378;2023-12-20T13:42:57;7.75;;;2.03;;
53775;SDS011;44276;49.534;6.378;2023-12-20T13:45:26;9.60;;;2.38;;
53775;SDS011;44276;49.534;6.378;2023-12-20T13:47:54;8.85;;;2.50;;
53775;SDS011;44276;49.534;6.378;2023-12-20T13:50:23;8.13;;;3.33;;
53775;SDS011;44276;49.534;6.378;2023-12-20T13:52:52;15.90;;;3.17;;
53775;SDS011;44276;49.534;6.378;2023-12-20T13:55:20;13.00;;;2.38;;
53775;SDS011;44276;49.534;6.378;2023-12-20T13:57:51;13.88;;;3.85;;
53775;SDS011;44276;49.534;6.378;2023-12-20T14:00:21;8.23;;;2.03;;
53775;SDS011;44276;49.534;6.378;2023-12-20T14:02:51;10.50;;;2.47;;
53775;SDS011;44276;49.534;6.378;2023-12-20T14:05:19;8.60;;;3.60;;
53775;SDS011;44276;49.534;6.378;2023-12-20T14:07:54;11.35;;;1.75;;
53775;SDS011;44276;49.534;6.378;2023-12-20T14:10:24;7.47;;;1.88;;
53775;SDS011;44276;49.534;6.378;2023-12-20T14:12:53;6.28;;;2.03;;
53775;SDS011;44276;49.534;6.378;2023-12-20T14:15:22;9.73;;;3.58;;
53775;SDS011;44276;49.534;6.378;2023-12-20T14:17:53;13.45;;;2.10;;
53775;SDS011;44276;49.534;6.378;2023-12-20T14:20:22;10.77;;;2.95;;
53775;SDS011;44276;49.534;6.378;2023-12-20T14:22:50;7.22;;;2.58;;
53775;SDS011;44276;49.534;6.378;2023-12-20T14:25:18;4.82;;;2.42;;
53775;SDS011;44276;49.534;6.378;2023-12-20T14:27:46;15.02;;;3.40;;
53775;SDS011;44276;49.534;6.378;2023-12-20T14:30:15;17.85;;;4.82;;
53775;SDS011;44276;49.534;6.378;2023-12-20T14:32:43;14.15;;;3.42;;
53775;SDS011;44276;49.534;6.378;2023-12-20T14:35:13;18.50;;;4.15;;
53775;SDS011;44276;49.534;6.378;2023-12-20T14:37:42;16.00;;;3.72;;
53775;SDS011;44276;49.534;6.378;2023-12-20T14:40:11;18.63;;;4.80;;
53775;SDS011;44276;49.534;6.378;2023-12-20T14:42:42;11.43;;;2.47;;
53775;SDS011;44276;49.534;6.378;2023-12-20T14:45:12;13.70;;;3.70;;
53775;SDS011;44276;49.534;6.378;2023-12-20T14:47:42;18.50;;;4.20;;
53775;SDS011;44276;49.534;6.378;2023-12-20T14:50:11;17.23;;;3.67;;
53775;SDS011;44276;49.534;6.378;2023-12-20T14:52:45;8.40;;;2.35;;
53775;SDS011;44276;49.534;6.378;2023-12-20T14:55:13;14.63;;;3.33;;
53775;SDS011;44276;49.534;6.378;2023-12-20T14:57:42;7.82;;;3.05;;
53775;SDS011;44276;49.534;6.378;2023-12-20T15:00:10;21.85;;;4.13;;